This is the latest recevied weather packets stored in our database for station/object HS9UAC-10. If no packets are shown the sender has not sent any weather packets the latest 10 day(s).
| Time | Temp. | Humidity | Pressure | Rain* | Wind** | Luminosity | Snow |
|---|---|---|---|---|---|---|---|
| 1777788217 | 38.33° C | 54% | 1007 hPa | - | - | 0 W/m² | - |
| 1777787292 | 37.22° C | 56% | 1007 hPa | - | - | 0 W/m² | - |
| 1777786368 | 38.33° C | 53% | 1008 hPa | - | - | 0 W/m² | - |
| 1777785443 | 37.78° C | 56% | 1008 hPa | - | - | 0 W/m² | - |
| 1777784518 | 37.78° C | 54% | 1008 hPa | - | - | 0 W/m² | - |
| 1777783594 | 38.33° C | 52% | 1008 hPa | - | - | 0 W/m² | - |
| 1777782669 | 37.78° C | 54% | 1009 hPa | - | - | 0 W/m² | - |
| 1777781745 | 36.67° C | 57% | 1009 hPa | - | - | 0 W/m² | - |
| 1777780820 | 36.67° C | 58% | 1009 hPa | - | - | 0 W/m² | - |
| 1777779896 | 35.56° C | 59% | 1009 hPa | - | - | 0 W/m² | - |
| 1777778971 | 35.56° C | 60% | 1009 hPa | - | - | 0 W/m² | - |
| 1777778046 | 36.67° C | 56% | 1009 hPa | - | - | 0 W/m² | - |
| 1777777122 | 35.56° C | 64% | 1009 hPa | - | - | 0 W/m² | - |
| 1777776197 | 35.56° C | 64% | 1009 hPa | - | - | 0 W/m² | - |
| 1777775272 | 36.11° C | 60% | 1009 hPa | - | - | 0 W/m² | - |
| 1777774347 | 36.11° C | 63% | 1009 hPa | - | - | 0 W/m² | - |
| 1777773423 | 35.56° C | 67% | 1009 hPa | - | - | 0 W/m² | - |
| 1777772498 | 34.44° C | 72% | 1009 hPa | - | - | 0 W/m² | - |
| 1777771573 | 33.89° C | 76% | 1009 hPa | - | - | 0 W/m² | - |
| 1777770649 | 33.33° C | 80% | 1008 hPa | - | - | 0 W/m² | - |
| 1777769724 | 33.89° C | 75% | 1008 hPa | - | - | 0 W/m² | - |
| 1777768799 | 33.33° C | 77% | 1008 hPa | - | - | 0 W/m² | - |
| 1777767875 | 33.33° C | 81% | 1008 hPa | - | - | 0 W/m² | - |
| 1777766950 | 32.78° C | 84% | 1008 hPa | - | - | 0 W/m² | - |
| 1777766892 | 32.78° C | 85% | 1008 hPa | - | - | 0 W/m² | - |
* Rain since midnight (hover to see other rain measurements)
** Current wind speed in m/s (hover to see current wind gust speed)